Time;durP1;ratioP1;P1;durP2;ratioP2;P2;SDS_P1;SDS_P2;PMS_P1;PMS_P2;Temp;Humidity;BMP_temperature;BMP_pressure;BME280_temperature;BME280_humidity;BME280_pressure;Samples;Min_cycle;Max_cycle;Signal;HPM_P1;HPM_P2
2023/09/06 00:01:33;;;;;;;0.20;0.20;;;16.40;99.90;;;;;;5126294;27;20189;-73
2023/09/06 00:03:58;;;;;;;2.17;1.63;;;16.40;99.90;;;;;;5124664;27;20035;-73
2023/09/06 00:06:24;;;;;;;1.48;0.88;;;16.50;99.90;;;;;;5126092;27;20091;-72
2023/09/06 00:08:50;;;;;;;0.80;0.80;;;16.40;99.90;;;;;;5128576;27;20114;-73
2023/09/06 00:11:16;;;;;;;1.00;0.85;;;16.20;99.90;;;;;;5128580;27;20484;-73
2023/09/06 00:13:42;;;;;;;0.25;0.17;;;16.20;99.90;;;;;;5125938;27;20035;-73
2023/09/06 00:16:08;;;;;;;0.40;0.38;;;16.20;99.90;;;;;;5124779;27;20027;-73
2023/09/06 00:18:34;;;;;;;0.25;0.25;;;16.20;99.90;;;;;;5127747;27;20035;-73
2023/09/06 00:20:59;;;;;;;1.45;0.65;;;16.20;99.90;;;;;;5125196;27;20536;-73
2023/09/06 00:23:25;;;;;;;0.45;0.30;;;16.20;99.90;;;;;;5125283;27;20047;-73
2023/09/06 00:25:52;;;;;;;0.43;0.43;;;16.20;99.90;;;;;;5121668;27;20040;-73
2023/09/06 00:28:23;;;;;;;0.25;0.15;;;16.20;99.90;;;;;;5129706;27;20039;-73
2023/09/06 00:30:56;;;;;;;0.55;0.55;;;16.10;99.90;;;;;;5126380;27;20431;-73
2023/09/06 00:33:23;;;;;;;2.08;1.00;;;16.10;99.90;;;;;;5128156;27;20092;-73
2023/09/06 00:35:49;;;;;;;1.08;1.00;;;16.10;99.90;;;;;;5116549;27;20036;-74
2023/09/06 00:38:15;;;;;;;0.90;0.85;;;16.10;99.90;;;;;;5128001;27;20041;-73
2023/09/06 00:40:41;;;;;;;1.15;0.68;;;16.10;99.90;;;;;;5128200;27;20220;-73
2023/09/06 00:43:08;;;;;;;0.15;0.15;;;16.20;99.90;;;;;;5125410;27;20114;-73
2023/09/06 00:45:33;;;;;;;0.10;0.10;;;16.20;99.90;;;;;;5115596;27;20118;-73
2023/09/06 00:48:01;;;;;;;0.60;0.45;;;16.20;99.90;;;;;;5112865;27;20078;-73
2023/09/06 00:50:27;;;;;;;1.75;1.60;;;16.20;99.90;;;;;;5124536;27;20047;-73
2023/09/06 00:52:53;;;;;;;1.05;0.50;;;16.10;99.90;;;;;;5131329;27;20052;-73
2023/09/06 00:55:20;;;;;;;2.15;1.33;;;16.10;99.90;;;;;;5113180;27;20052;-72
2023/09/06 00:57:47;;;;;;;1.08;0.52;;;16.00;99.90;;;;;;5119714;27;20036;-73
2023/09/06 01:00:17;;;;;;;0.13;0.13;;;15.90;99.90;;;;;;5133596;27;20051;-72
2023/09/06 01:02:47;;;;;;;0.10;0.00;;;15.90;99.90;;;;;;5127609;27;20043;-74
2023/09/06 01:05:14;;;;;;;2.85;1.55;;;15.80;99.90;;;;;;5112067;27;20058;-73
2023/09/06 01:07:44;;;;;;;3.70;0.60;;;15.90;99.90;;;;;;5115759;27;20067;-73
2023/09/06 01:10:09;;;;;;;1.33;0.55;;;15.80;99.90;;;;;;5131242;27;20488;-72
2023/09/06 01:12:35;;;;;;;1.25;1.08;;;15.80;99.90;;;;;;5125395;27;20122;-73
2023/09/06 01:15:05;;;;;;;1.27;0.38;;;15.80;99.90;;;;;;5102385;27;20040;-72
2023/09/06 01:17:33;;;;;;;0.55;0.52;;;15.80;99.90;;;;;;5113307;27;20047;-73
2023/09/06 01:20:15;;;;;;;2.95;0.85;;;15.80;99.90;;;;;;5127084;27;20039;-73
2023/09/06 01:22:46;;;;;;;0.45;0.25;;;15.70;99.90;;;;;;5118341;27;20071;-73
2023/09/06 01:25:12;;;;;;;1.48;1.38;;;15.70;99.90;;;;;;5123486;27;20093;-73
2023/09/06 01:27:39;;;;;;;0.47;0.47;;;15.70;99.90;;;;;;5123842;27;20035;-73
2023/09/06 01:30:07;;;;;;;4.68;1.25;;;15.80;99.90;;;;;;5123676;27;20035;-73
2023/09/06 01:32:32;;;;;;;8.93;1.67;;;15.70;99.90;;;;;;5123608;27;20047;-73
2023/09/06 01:34:58;;;;;;;1.00;0.90;;;15.70;99.90;;;;;;5124215;27;20364;-73
2023/09/06 01:37:23;;;;;;;0.80;0.70;;;15.70;99.90;;;;;;5123717;27;20043;-72
2023/09/06 01:39:49;;;;;;;1.73;1.23;;;15.60;99.90;;;;;;5123571;27;20048;-73
2023/09/06 01:42:14;;;;;;;0.70;0.10;;;15.60;99.90;;;;;;5117030;27;20043;-72
2023/09/06 01:44:40;;;;;;;0.20;0.20;;;15.60;99.90;;;;;;5120268;27;20035;-73
2023/09/06 01:47:06;;;;;;;0.70;0.45;;;15.60;99.90;;;;;;5122280;27;20035;-73
2023/09/06 01:49:32;;;;;;;1.63;1.35;;;15.60;99.90;;;;;;5126737;27;20404;-73
2023/09/06 01:51:59;;;;;;;1.15;0.80;;;15.80;99.90;;;;;;5126436;27;20043;-73
2023/09/06 01:54:25;;;;;;;1.70;0.68;;;15.80;99.90;;;;;;5123791;27;20078;-72
2023/09/06 01:56:51;;;;;;;0.40;0.40;;;15.80;99.90;;;;;;5107228;27;20129;-73
2023/09/06 01:59:17;;;;;;;0.13;0.13;;;15.80;99.90;;;;;;5121107;27;20065;-73
2023/09/06 02:01:42;;;;;;;0.30;0.30;;;15.70;99.90;;;;;;5126558;27;20047;-73
2023/09/06 02:04:08;;;;;;;0.03;0.03;;;15.60;99.90;;;;;;5126311;27;20045;-73
2023/09/06 02:06:34;;;;;;;0.35;0.35;;;15.90;99.90;;;;;;5119296;27;20029;-73
2023/09/06 02:08:59;;;;;;;1.13;0.85;;;15.80;99.90;;;;;;5116723;27;20587;-73
2023/09/06 02:11:26;;;;;;;0.30;0.20;;;16.00;99.90;;;;;;5120224;27;20455;-73
2023/09/06 02:13:52;;;;;;;0.43;0.43;;;15.80;99.90;;;;;;5122715;27;20035;-73
2023/09/06 02:16:18;;;;;;;0.65;0.65;;;15.70;99.90;;;;;;5110119;28;20075;-73
2023/09/06 02:18:43;;;;;;;0.40;0.38;;;15.60;99.90;;;;;;5124702;27;20112;-73
2023/09/06 02:21:09;;;;;;;0.15;0.13;;;15.60;99.90;;;;;;5126263;27;20476;-72
2023/09/06 02:23:35;;;;;;;0.32;0.32;;;15.60;99.90;;;;;;5125743;27;20043;-72
2023/09/06 02:26:02;;;;;;;0.88;0.55;;;15.50;99.90;;;;;;5109006;27;20036;-72
2023/09/06 02:28:28;;;;;;;0.57;0.50;;;15.50;99.90;;;;;;5125894;27;20050;-72
2023/09/06 02:30:54;;;;;;;0.00;0.00;;;15.40;99.90;;;;;;5123740;27;20106;-72
2023/09/06 02:33:19;;;;;;;0.30;0.30;;;15.30;99.90;;;;;;5122327;27;20040;-72
2023/09/06 02:35:45;;;;;;;0.00;0.00;;;15.20;99.90;;;;;;5129509;27;20035;-72
2023/09/06 02:38:12;;;;;;;1.25;0.60;;;15.10;99.90;;;;;;5122440;27;20040;-72
2023/09/06 02:40:41;;;;;;;1.25;0.15;;;15.10;99.90;;;;;;5122748;27;20044;-72
2023/09/06 02:43:07;;;;;;;0.82;0.30;;;15.20;99.90;;;;;;5124268;27;20602;-72
2023/09/06 02:45:38;;;;;;;0.28;0.28;;;15.20;99.90;;;;;;5126013;27;20035;-72
2023/09/06 02:48:13;;;;;;;1.40;0.95;;;15.10;99.90;;;;;;5133660;27;20122;-72
2023/09/06 02:50:40;;;;;;;0.60;0.52;;;15.10;99.90;;;;;;5122827;28;20100;-72
2023/09/06 02:53:15;;;;;;;0.82;0.63;;;15.10;99.90;;;;;;5122278;27;20442;-72
2023/09/06 02:55:41;;;;;;;1.17;0.88;;;15.00;99.90;;;;;;5114579;27;20386;-72
2023/09/06 02:58:07;;;;;;;0.75;0.57;;;14.90;99.90;;;;;;5106483;28;20498;-72
2023/09/06 03:00:35;;;;;;;1.00;0.68;;;14.80;99.90;;;;;;5120263;27;20043;-72
2023/09/06 03:03:05;;;;;;;1.40;0.80;;;14.80;99.90;;;;;;5117651;28;20082;-72
2023/09/06 03:05:44;;;;;;;1.08;0.80;;;14.80;99.90;;;;;;5131062;28;20035;-71
2023/09/06 03:08:12;;;;;;;0.00;0.00;;;14.70;99.90;;;;;;5117244;28;20374;-72
2023/09/06 03:10:44;;;;;;;1.33;0.90;;;14.70;99.90;;;;;;5128420;27;20054;-72
2023/09/06 03:13:10;;;;;;;0.45;0.45;;;14.70;99.90;;;;;;5129820;27;20048;-72
2023/09/06 03:15:36;;;;;;;0.20;0.20;;;14.60;99.90;;;;;;5128002;27;20189;-72
2023/09/06 03:18:02;;;;;;;0.00;0.00;;;14.60;99.90;;;;;;5125721;27;20484;-72
2023/09/06 03:20:33;;;;;;;1.38;0.65;;;14.50;99.90;;;;;;5126145;27;20046;-72
2023/09/06 03:23:17;;;;;;;1.00;0.55;;;14.60;99.90;;;;;;5118524;27;20031;-72
2023/09/06 03:25:49;;;;;;;0.10;0.10;;;14.60;99.90;;;;;;5127433;27;20055;-72
2023/09/06 03:28:18;;;;;;;0.45;0.35;;;14.50;99.90;;;;;;5118664;27;20079;-72
2023/09/06 03:30:44;;;;;;;0.20;0.20;;;14.70;99.90;;;;;;5124240;27;20085;-72
2023/09/06 03:33:10;;;;;;;0.10;0.10;;;14.40;99.90;;;;;;5129196;27;20047;-72
2023/09/06 03:35:36;;;;;;;0.30;0.30;;;14.50;99.90;;;;;;5129181;27;20039;-72
2023/09/06 03:38:02;;;;;;;0.22;0.20;;;14.50;99.90;;;;;;5128457;27;20118;-72
2023/09/06 03:40:35;;;;;;;0.40;0.28;;;14.40;99.90;;;;;;5129391;27;20118;-72
2023/09/06 03:43:05;;;;;;;0.35;0.35;;;14.40;99.90;;;;;;5120671;27;20393;-72
2023/09/06 03:45:34;;;;;;;0.35;0.32;;;14.40;99.90;;;;;;5129348;27;20114;-73
2023/09/06 03:48:00;;;;;;;0.40;0.40;;;14.40;99.90;;;;;;5125680;27;20035;-72
2023/09/06 03:50:27;;;;;;;0.17;0.17;;;14.40;99.90;;;;;;5128930;27;20039;-72
2023/09/06 03:52:53;;;;;;;0.60;0.38;;;14.40;99.90;;;;;;5128759;27;20047;-72
2023/09/06 03:55:19;;;;;;;0.73;0.40;;;14.40;99.90;;;;;;5127112;27;20444;-72
2023/09/06 03:57:46;;;;;;;0.88;0.80;;;14.50;99.90;;;;;;5122744;27;20065;-72
2023/09/06 04:00:47;;;;;;;0.52;0.20;;;14.40;99.90;;;;;;5123806;27;20046;-72
2023/09/06 04:03:07;;;;;;;0.40;0.40;;;14.50;99.90;;;;;;5125581;27;20454;-72
2023/09/06 04:05:33;;;;;;;0.00;0.00;;;14.50;99.90;;;;;;5126214;27;20887;-73
2023/09/06 04:08:03;;;;;;;0.10;0.10;;;14.40;99.90;;;;;;5124779;27;20039;-72
2023/09/06 04:10:37;;;;;;;0.08;0.08;;;14.40;99.90;;;;;;5118004;27;20043;-72
2023/09/06 04:13:04;;;;;;;1.05;0.95;;;14.40;99.90;;;;;;5125301;27;20487;-72
2023/09/06 04:15:30;;;;;;;0.55;0.52;;;14.60;99.90;;;;;;5126614;27;20137;-72
2023/09/06 04:17:57;;;;;;;0.20;0.20;;;14.60;99.90;;;;;;5126999;27;20046;-72
2023/09/06 04:20:30;;;;;;;1.13;0.63;;;14.70;99.90;;;;;;5120869;27;20043;-72
2023/09/06 04:22:57;;;;;;;0.45;0.40;;;14.60;99.90;;;;;;5116691;27;20503;-72
2023/09/06 04:25:26;;;;;;;0.10;0.10;;;14.40;99.90;;;;;;5125252;27;20391;-72
2023/09/06 04:27:55;;;;;;;0.45;0.08;;;14.30;99.90;;;;;;5127105;27;20039;-72
2023/09/06 04:30:28;;;;;;;1.00;0.57;;;14.20;99.90;;;;;;5119732;27;20040;-72
2023/09/06 04:32:57;;;;;;;0.30;0.30;;;14.20;99.90;;;;;;5126735;27;20035;-72
2023/09/06 04:35:34;;;;;;;2.15;0.77;;;14.10;99.90;;;;;;5128347;27;20051;-72
2023/09/06 04:38:02;;;;;;;0.35;0.35;;;14.10;99.90;;;;;;5125543;27;20116;-73
2023/09/06 04:40:29;;;;;;;0.22;0.22;;;14.20;99.90;;;;;;5124599;27;20051;-75
2023/09/06 04:42:55;;;;;;;0.10;0.10;;;14.20;99.90;;;;;;5125347;27;20044;-73
2023/09/06 04:45:20;;;;;;;1.75;0.70;;;14.20;99.90;;;;;;5127981;27;20032;-72
2023/09/06 04:47:46;;;;;;;0.80;0.50;;;15.10;99.90;;;;;;5110787;27;20392;-72
2023/09/06 04:50:12;;;;;;;0.80;0.70;;;14.30;99.90;;;;;;5115013;27;20042;-72
2023/09/06 04:52:45;;;;;;;0.47;0.47;;;14.20;99.90;;;;;;5124401;27;20044;-73
2023/09/06 04:55:12;;;;;;;0.38;0.28;;;14.20;99.90;;;;;;5117891;27;20561;-73
2023/09/06 04:57:39;;;;;;;0.22;0.22;;;14.30;99.90;;;;;;5116387;27;20039;-73
2023/09/06 05:00:23;;;;;;;0.52;0.40;;;14.10;99.90;;;;;;5112207;27;20032;-73
2023/09/06 05:02:54;;;;;;;0.95;0.82;;;14.10;99.90;;;;;;5112539;27;20437;-73
2023/09/06 05:05:21;;;;;;;0.22;0.22;;;14.00;99.90;;;;;;5112626;27;20040;-72
2023/09/06 05:07:47;;;;;;;1.13;0.30;;;14.00;99.90;;;;;;5114895;27;20035;-71
2023/09/06 05:10:12;;;;;;;1.08;0.70;;;14.00;99.90;;;;;;5116274;27;20515;-72
2023/09/06 05:12:38;;;;;;;0.60;0.47;;;14.00;99.90;;;;;;5114589;27;20031;-72
2023/09/06 05:15:05;;;;;;;0.20;0.20;;;13.90;99.90;;;;;;5110105;27;20062;-72
2023/09/06 05:17:32;;;;;;;0.63;0.50;;;14.00;99.90;;;;;;5106756;27;20412;-72
2023/09/06 05:20:28;;;;;;;0.52;0.52;;;13.90;99.90;;;;;;5107598;27;20496;-72
2023/09/06 05:23:03;;;;;;;0.17;0.17;;;13.90;99.90;;;;;;5112834;27;20035;-72
2023/09/06 05:25:29;;;;;;;0.30;0.30;;;13.90;99.90;;;;;;5112813;27;20074;-72
2023/09/06 05:28:00;;;;;;;0.10;0.10;;;13.90;99.90;;;;;;5120206;27;20109;-72
2023/09/06 05:30:26;;;;;;;0.43;0.32;;;14.00;99.90;;;;;;5110307;27;20047;-72
2023/09/06 05:32:54;;;;;;;0.10;0.10;;;14.10;99.90;;;;;;5107721;27;20040;-73
2023/09/06 05:35:19;;;;;;;1.30;0.82;;;14.20;99.90;;;;;;5110775;27;20039;-73
2023/09/06 05:37:45;;;;;;;0.20;0.20;;;14.30;99.90;;;;;;5109167;27;20043;-73
2023/09/06 05:40:12;;;;;;;0.10;0.10;;;14.20;99.90;;;;;;5108957;27;20071;-73
2023/09/06 05:42:39;;;;;;;0.63;0.52;;;14.30;99.90;;;;;;5105725;27;20436;-73
2023/09/06 05:45:05;;;;;;;0.82;0.40;;;14.50;99.90;;;;;;5114715;27;20040;-73
2023/09/06 05:47:33;;;;;;;0.75;0.75;;;14.50;99.90;;;;;;5112046;27;20040;-73
2023/09/06 05:49:58;;;;;;;0.22;0.13;;;14.80;99.90;;;;;;5109983;27;20109;-73
2023/09/06 05:52:24;;;;;;;1.52;0.68;;;14.90;99.90;;;;;;5104454;27;20040;-73
2023/09/06 05:54:50;;;;;;;0.35;0.30;;;14.90;99.90;;;;;;5105767;28;20172;-73
2023/09/06 05:57:16;;;;;;;13.02;0.57;;;14.90;99.90;;;;;;5110462;27;20044;-73
2023/09/06 05:59:41;;;;;;;1.25;0.80;;;15.00;99.90;;;;;;5113770;27;20373;-73
2023/09/06 06:02:07;;;;;;;0.17;0.17;;;15.10;99.90;;;;;;5109267;27;20485;-73
2023/09/06 06:04:34;;;;;;;0.10;0.10;;;15.20;99.90;;;;;;5118409;27;20035;-73
2023/09/06 06:06:59;;;;;;;1.33;0.90;;;15.20;99.90;;;;;;5125667;27;20038;-73
2023/09/06 06:09:28;;;;;;;0.95;0.77;;;15.30;99.90;;;;;;5115972;27;20032;-73
2023/09/06 06:11:53;;;;;;;0.22;0.13;;;15.30;99.90;;;;;;5112498;27;20111;-73
2023/09/06 06:14:19;;;;;;;1.00;0.80;;;15.60;99.90;;;;;;5112612;27;20128;-73
2023/09/06 06:16:45;;;;;;;0.52;0.40;;;16.30;99.90;;;;;;5113250;27;20093;-73
2023/09/06 06:19:11;;;;;;;0.77;0.57;;;16.90;99.90;;;;;;5108033;27;20043;-73
2023/09/06 06:21:37;;;;;;;0.20;0.20;;;17.30;99.90;;;;;;5109844;27;20031;-73
2023/09/06 06:24:04;;;;;;;1.77;0.32;;;17.80;99.90;;;;;;5107418;28;20051;-73
2023/09/06 06:26:30;;;;;;;0.95;0.68;;;18.00;99.90;;;;;;5105608;27;20040;-73
2023/09/06 06:28:55;;;;;;;0.28;0.28;;;18.10;99.90;;;;;;5110153;27;20107;-73
2023/09/06 06:31:21;;;;;;;0.25;0.25;;;18.50;99.90;;;;;;5111712;27;20488;-73
2023/09/06 06:33:48;;;;;;;2.65;1.52;;;18.70;99.90;;;;;;5112151;27;20449;-73
2023/09/06 06:36:13;;;;;;;0.10;0.10;;;18.80;99.90;;;;;;5111229;27;20047;-73
2023/09/06 06:38:40;;;;;;;0.55;0.52;;;19.60;99.90;;;;;;5106728;27;20397;-73
2023/09/06 06:41:18;;;;;;;0.38;0.20;;;20.20;1.00;;;;;;5108165;27;20044;-74
2023/09/06 06:43:44;;;;;;;0.35;0.30;;;21.10;99.90;;;;;;5105964;27;20090;-74
2023/09/06 06:46:33;;;;;;;0.43;0.22;;;21.70;99.90;;;;;;5105233;27;20505;-74
2023/09/06 06:48:59;;;;;;;2.72;0.52;;;21.90;1.00;;;;;;5113549;27;20055;-74
2023/09/06 06:51:26;;;;;;;0.20;0.20;;;22.30;99.90;;;;;;5102487;28;20063;-74
2023/09/06 06:53:53;;;;;;;2.88;1.05;;;23.20;99.90;;;;;;5108175;27;20135;-74
2023/09/06 06:56:21;;;;;;;3.50;1.02;;;23.80;70.40;;;;;;5113702;28;20135;-74
2023/09/06 06:58:50;;;;;;;0.00;0.00;;;23.60;99.90;;;;;;5109562;28;20766;-74
2023/09/06 07:01:16;;;;;;;0.00;0.00;;;24.10;99.90;;;;;;5110426;28;20052;-74
2023/09/06 07:03:42;;;;;;;0.17;0.10;;;24.60;1.00;;;;;;5120476;27;20106;-74
2023/09/06 07:06:08;;;;;;;2.40;0.55;;;24.90;99.90;;;;;;5108382;28;20089;-74
2023/09/06 07:08:35;;;;;;;0.70;0.43;;;25.60;1.00;;;;;;5111050;28;20076;-74
2023/09/06 07:11:03;;;;;;;0.10;0.10;;;25.80;99.90;;;;;;5121749;27;20043;-74
2023/09/06 07:13:29;;;;;;;0.10;0.10;;;26.00;99.90;;;;;;5120289;27;20053;-74
2023/09/06 07:15:55;;;;;;;0.30;0.30;;;25.30;99.90;;;;;;5118767;28;20035;-74
2023/09/06 07:18:21;;;;;;;1.55;0.75;;;23.90;99.90;;;;;;5118278;28;20040;-74
2023/09/06 07:20:47;;;;;;;1.55;0.43;;;22.90;1.00;;;;;;5120781;28;20135;-74
2023/09/06 07:23:13;;;;;;;0.40;0.40;;;22.20;99.90;;;;;;5121779;27;20043;-74
2023/09/06 07:25:39;;;;;;;0.50;0.35;;;21.80;99.90;;;;;;5118391;28;20401;-74
2023/09/06 07:28:05;;;;;;;0.10;0.10;;;21.60;99.90;;;;;;5117586;28;20046;-74
2023/09/06 07:30:31;;;;;;;0.00;0.00;;;21.50;1.00;;;;;;5114273;28;20425;-74
2023/09/06 07:32:56;;;;;;;0.52;0.47;;;21.40;99.90;;;;;;5120876;28;20142;-74
2023/09/06 07:35:22;;;;;;;0.13;0.13;;;21.40;1.00;;;;;;5116212;27;20122;-73
2023/09/06 07:37:47;;;;;;;0.40;0.30;;;21.40;1.00;;;;;;5115859;28;20047;-73
2023/09/06 07:40:13;;;;;;;0.90;0.68;;;21.50;99.90;;;;;;5122392;28;20054;-73
2023/09/06 07:42:39;;;;;;;1.02;0.57;;;21.40;99.90;;;;;;5105780;28;20087;-73
2023/09/06 07:45:09;;;;;;;0.47;0.43;;;21.50;1.00;;;;;;5108292;28;20040;-73
2023/09/06 07:47:34;;;;;;;1.98;0.82;;;21.60;99.90;;;;;;5104904;28;20519;-73
2023/09/06 07:50:00;;;;;;;0.20;0.20;;;21.60;99.90;;;;;;5105523;28;20036;-73
2023/09/06 07:52:26;;;;;;;0.93;0.80;;;21.70;1.00;;;;;;5105285;28;20054;-74
2023/09/06 07:54:51;;;;;;;0.45;0.40;;;21.80;99.90;;;;;;5101957;27;20079;-73
2023/09/06 07:57:17;;;;;;;0.13;0.13;;;22.00;99.90;;;;;;5107917;27;20044;-73
2023/09/06 07:59:43;;;;;;;0.40;0.10;;;22.80;99.90;;;;;;5109618;27;20040;-74
2023/09/06 08:02:08;;;;;;;0.60;0.38;;;23.90;1.00;;;;;;5114332;27;20047;-74
2023/09/06 08:04:34;;;;;;;0.70;0.47;;;25.00;99.90;;;;;;5113065;27;20035;-74
2023/09/06 08:06:59;;;;;;;1.65;0.45;;;26.10;72.90;;;;;;5109028;27;20062;-73
2023/09/06 08:09:25;;;;;;;1.08;0.57;;;27.00;1.00;;;;;;5113308;27;20047;-74
2023/09/06 08:11:51;;;;;;;0.10;0.10;;;27.40;99.90;;;;;;5107912;27;20038;-74
2023/09/06 08:14:16;;;;;;;2.08;0.60;;;28.20;99.90;;;;;;5100631;27;20170;-74
2023/09/06 08:16:43;;;;;;;0.20;0.20;;;29.00;99.90;;;;;;5124028;27;20035;-74
2023/09/06 08:19:08;;;;;;;1.13;1.02;;;29.50;99.90;;;;;;5123233;27;20035;-74
2023/09/06 08:21:35;;;;;;;3.08;0.38;;;28.90;99.90;;;;;;5121685;27;20088;-74
2023/09/06 08:24:02;;;;;;;1.17;0.40;;;29.30;99.90;;;;;;5124703;27;20077;-74
2023/09/06 08:26:28;;;;;;;0.55;0.20;;;29.50;99.90;;;;;;5124443;27;20098;-74
2023/09/06 08:28:54;;;;;;;0.10;0.10;;;29.30;99.90;;;;;;5121601;27;20129;-74
2023/09/06 08:31:20;;;;;;;0.00;0.00;;;29.20;64.30;;;;;;5112036;28;20177;-74
2023/09/06 08:33:45;;;;;;;0.35;0.35;;;30.00;99.90;;;;;;5111992;28;20097;-75
2023/09/06 08:36:11;;;;;;;0.10;0.10;;;29.70;57.50;;;;;;5120985;27;20323;-75
2023/09/06 08:38:39;;;;;;;0.08;0.08;;;30.30;29.40;;;;;;5109508;27;20477;-75
2023/09/06 08:41:05;;;;;;;0.28;0.28;;;31.20;60.70;;;;;;5112285;27;20043;-75
2023/09/06 08:43:38;;;;;;;0.10;0.10;;;31.50;64.10;;;;;;5109600;27;20039;-75
2023/09/06 08:46:11;;;;;;;1.13;0.40;;;31.70;73.90;;;;;;5120704;27;20256;-75
2023/09/06 08:48:37;;;;;;;0.82;0.50;;;32.40;29.80;;;;;;5124218;27;20655;-75
2023/09/06 08:51:04;;;;;;;0.20;0.05;;;32.30;1.00;;;;;;5123089;27;20440;-75
2023/09/06 08:53:33;;;;;;;0.00;0.00;;;32.80;1.00;;;;;;5120878;27;20055;-75
2023/09/06 08:56:00;;;;;;;0.55;0.45;;;32.80;1.00;;;;;;5120730;27;20411;-75
2023/09/06 08:58:27;;;;;;;0.90;0.55;;;32.70;1.00;;;;;;5123354;27;20443;-75
2023/09/06 09:00:53;;;;;;;0.10;0.10;;;32.20;99.90;;;;;;5123797;27;20115;-75
2023/09/06 09:03:20;;;;;;;0.52;0.45;;;31.30;99.90;;;;;;5113932;27;20054;-75
2023/09/06 09:05:45;;;;;;;0.80;0.52;;;32.20;99.90;;;;;;5123664;27;20058;-75
2023/09/06 09:08:11;;;;;;;1.98;0.73;;;32.70;99.90;;;;;;5123360;27;20476;-75
2023/09/06 09:10:37;;;;;;;0.00;0.00;;;32.00;99.90;;;;;;5120564;27;20032;-75
2023/09/06 09:13:02;;;;;;;0.00;0.00;;;32.10;99.90;;;;;;5119934;27;20038;-75
2023/09/06 09:15:33;;;;;;;0.22;0.10;;;32.30;99.90;;;;;;5122002;27;20130;-73
2023/09/06 09:17:59;;;;;;;0.00;0.00;;;32.30;99.90;;;;;;5120132;27;20424;-73
2023/09/06 09:20:26;;;;;;;0.00;0.00;;;32.30;99.90;;;;;;5120153;27;20059;-73
2023/09/06 09:22:52;;;;;;;0.63;0.35;;;32.70;99.90;;;;;;5111696;27;20039;-74
2023/09/06 09:25:23;;;;;;;0.25;0.25;;;33.10;99.90;;;;;;5120093;27;20406;-74
2023/09/06 09:27:56;;;;;;;3.97;0.22;;;33.30;99.90;;;;;;5121718;27;20131;-73
2023/09/06 09:30:22;;;;;;;0.10;0.10;;;33.00;99.90;;;;;;5118582;27;20046;-74
2023/09/06 09:32:48;;;;;;;0.00;0.00;;;33.10;99.90;;;;;;5119653;27;20828;-74
2023/09/06 09:35:14;;;;;;;0.52;0.40;;;33.00;99.90;;;;;;5119714;27;20035;-73
2023/09/06 09:37:41;;;;;;;2.38;0.65;;;32.80;99.90;;;;;;5119767;27;20081;-74
2023/09/06 09:40:20;;;;;;;0.50;0.28;;;32.70;99.90;;;;;;5122504;27;20039;-73
2023/09/06 09:42:56;;;;;;;0.10;0.10;;;32.50;99.90;;;;;;5120185;27;20050;-73
2023/09/06 09:45:24;;;;;;;0.43;0.35;;;32.30;99.90;;;;;;5117144;27;20088;-73
2023/09/06 09:47:52;;;;;;;0.70;0.55;;;32.20;99.90;;;;;;5122796;27;20766;-73
2023/09/06 09:50:20;;;;;;;0.55;0.35;;;31.80;99.90;;;;;;5109988;27;20050;-73
2023/09/06 09:52:47;;;;;;;0.00;0.00;;;31.70;99.90;;;;;;5113835;27;20055;-73
2023/09/06 09:55:17;;;;;;;0.10;0.10;;;31.50;99.90;;;;;;5120338;27;20054;-73
2023/09/06 09:57:46;;;;;;;0.10;0.10;;;31.20;99.90;;;;;;5118421;27;20668;-73
2023/09/06 10:00:15;;;;;;;0.17;0.17;;;31.00;99.90;;;;;;5119000;27;20153;-73
2023/09/06 10:02:42;;;;;;;1.10;0.30;;;30.40;99.90;;;;;;5121627;27;20035;-74
2023/09/06 10:05:16;;;;;;;0.73;0.45;;;30.00;99.90;;;;;;5121018;27;20050;-74
2023/09/06 10:07:43;;;;;;;0.50;0.38;;;29.70;99.90;;;;;;5110509;27;20039;-73
2023/09/06 10:10:12;;;;;;;0.20;0.20;;;29.30;99.90;;;;;;5101514;27;20036;-73
2023/09/06 10:12:48;;;;;;;0.57;0.30;;;29.80;99.90;;;;;;5108871;27;20043;-73
2023/09/06 10:15:13;;;;;;;0.20;0.20;;;30.10;99.90;;;;;;5106860;27;20052;-74
2023/09/06 10:17:40;;;;;;;0.17;0.17;;;29.60;99.90;;;;;;5106631;27;20035;-74
2023/09/06 10:20:12;;;;;;;0.43;0.32;;;29.60;99.90;;;;;;5114752;27;20488;-74
2023/09/06 10:22:42;;;;;;;0.65;0.35;;;29.70;99.90;;;;;;5103428;27;20413;-73
2023/09/06 10:25:10;;;;;;;0.30;0.20;;;30.00;99.90;;;;;;5123724;27;20084;-72
2023/09/06 10:27:48;;;;;;;0.00;0.00;;;30.10;99.90;;;;;;5122596;27;20503;-72
2023/09/06 10:30:19;;;;;;;0.05;0.05;;;29.90;99.90;;;;;;5119192;27;20572;-72
2023/09/06 10:32:46;;;;;;;0.20;0.20;;;30.10;99.90;;;;;;5109844;27;20038;-73
2023/09/06 10:35:22;;;;;;;0.30;0.22;;;30.10;99.90;;;;;;5102677;28;20046;-72
2023/09/06 10:38:14;;;;;;;0.10;0.10;;;30.30;99.90;;;;;;5106960;27;20083;-72
2023/09/06 10:40:49;;;;;;;0.20;0.20;;;30.70;99.90;;;;;;5106344;27;20047;-73
2023/09/06 10:43:19;;;;;;;;;;;31.00;99.90;;;;;;5103741;27;20118;-73
2023/09/06 10:46:18;;;;;;;0.52;0.43;;;31.20;99.90;;;;;;5101733;27;20323;-73
2023/09/06 10:49:19;;;;;;;0.20;0.20;;;31.30;99.90;;;;;;5086657;27;20062;-74
2023/09/06 10:51:56;;;;;;;0.30;0.30;;;30.90;99.90;;;;;;5100223;28;20098;-74
2023/09/06 10:54:34;;;;;;;0.10;0.10;;;31.00;99.90;;;;;;5104352;27;20039;-74
2023/09/06 10:57:02;;;;;;;0.03;0.03;;;30.90;99.90;;;;;;5104667;27;20071;-73
2023/09/06 10:59:28;;;;;;;0.35;0.32;;;31.20;99.90;;;;;;5105177;27;20043;-73
2023/09/06 11:02:09;;;;;;;0.20;0.20;;;31.00;99.90;;;;;;5120213;27;20389;-74
2023/09/06 11:04:36;;;;;;;0.47;0.30;;;31.00;99.90;;;;;;5096928;28;20104;-72
2023/09/06 11:07:10;;;;;;;0.00;0.00;;;31.10;99.90;;;;;;5112400;27;20415;-73
2023/09/06 11:09:43;;;;;;;0.20;0.10;;;31.10;99.90;;;;;;5106426;28;20407;-72
2023/09/06 11:12:10;;;;;;;0.13;0.08;;;31.20;99.90;;;;;;5110173;28;20046;-73
2023/09/06 11:14:35;;;;;;;1.95;0.20;;;31.80;99.90;;;;;;5104963;28;20050;-73
2023/09/06 11:17:01;;;;;;;0.20;0.13;;;31.40;99.90;;;;;;5101700;28;20044;-73
2023/09/06 11:19:29;;;;;;;0.20;0.20;;;31.50;99.90;;;;;;5102667;28;20385;-74
2023/09/06 11:22:08;;;;;;;0.00;0.00;;;31.30;99.90;;;;;;5115385;28;20052;-74
2023/09/06 11:24:37;;;;;;;0.00;0.00;;;31.40;99.90;;;;;;5119762;28;20089;-74
2023/09/06 11:27:17;;;;;;;0.52;0.20;;;31.50;99.90;;;;;;5115688;28;20035;-74
2023/09/06 11:29:43;;;;;;;0.00;0.00;;;31.70;99.90;;;;;;5115700;27;20388;-74
2023/09/06 11:32:12;;;;;;;0.00;0.00;;;31.60;99.90;;;;;;5126932;27;20127;-74
2023/09/06 11:34:45;;;;;;;0.63;0.52;;;31.80;99.90;;;;;;5126843;27;20788;-74
2023/09/06 11:37:15;;;;;;;0.00;0.00;;;32.20;99.90;;;;;;5114235;27;20050;-74
2023/09/06 11:39:45;;;;;;;0.40;0.30;;;32.00;99.90;;;;;;5114151;27;20440;-74
2023/09/06 11:42:14;;;;;;;0.25;0.17;;;32.00;99.90;;;;;;5115827;27;20464;-74
2023/09/06 11:44:47;;;;;;;0.98;0.68;;;32.20;99.90;;;;;;5125643;27;20042;-75
2023/09/06 11:47:18;;;;;;;0.00;0.00;;;32.70;99.90;;;;;;5114910;27;20066;-75
2023/09/06 11:49:45;;;;;;;0.60;0.35;;;32.80;99.90;;;;;;5125264;27;20058;-75
2023/09/06 11:52:19;;;;;;;0.73;0.20;;;33.30;99.90;;;;;;5125060;27;20116;-75
2023/09/06 11:54:49;;;;;;;1.33;0.68;;;34.10;99.90;;;;;;5128225;27;20035;-75
2023/09/06 11:57:26;;;;;;;0.88;0.47;;;33.80;99.90;;;;;;5125507;27;20526;-75
2023/09/06 11:59:58;;;;;;;0.45;0.28;;;34.20;99.90;;;;;;5124174;27;20035;-75
2023/09/06 12:02:27;;;;;;;3.58;0.88;;;34.60;99.90;;;;;;5127754;27;20040;-75
2023/09/06 12:05:01;;;;;;;0.13;0.10;;;34.20;99.90;;;;;;5128302;27;20046;-75
2023/09/06 12:07:29;;;;;;;0.00;0.00;;;34.90;99.90;;;;;;5125799;27;20047;-75
2023/09/06 12:10:00;;;;;;;0.13;0.00;;;35.00;99.90;;;;;;5123895;27;20044;-76
2023/09/06 12:12:26;;;;;;;0.00;0.00;;;34.50;97.40;;;;;;5125313;27;20488;-75
2023/09/06 12:14:52;;;;;;;0.77;0.57;;;33.90;78.00;;;;;;5128342;27;20127;-75
2023/09/06 12:17:19;;;;;;;0.85;0.70;;;34.40;99.90;;;;;;5128277;27;20077;-75
2023/09/06 12:19:45;;;;;;;0.00;0.00;;;33.80;80.50;;;;;;5124886;27;20040;-75
2023/09/06 12:22:17;;;;;;;0.10;0.10;;;33.60;72.00;;;;;;5124636;27;20075;-75
2023/09/06 12:24:46;;;;;;;0.10;0.10;;;33.20;50.40;;;;;;5126582;27;20479;-75
2023/09/06 12:27:15;;;;;;;0.32;0.25;;;33.30;43.60;;;;;;5127982;27;20400;-76
2023/09/06 12:29:42;;;;;;;0.13;0.13;;;33.90;82.40;;;;;;5126647;27;20043;-75
2023/09/06 12:32:08;;;;;;;0.30;0.30;;;33.90;75.20;;;;;;5124457;27;20035;-75
2023/09/06 12:34:33;;;;;;;2.25;0.52;;;34.10;79.00;;;;;;5124402;27;20503;-75
2023/09/06 12:36:59;;;;;;;1.00;0.30;;;34.00;70.30;;;;;;5126791;27;20400;-76
2023/09/06 12:39:25;;;;;;;0.93;0.22;;;33.70;70.40;;;;;;5127569;27;20036;-75
2023/09/06 12:41:50;;;;;;;0.60;0.28;;;34.20;84.50;;;;;;5126449;27;20548;-75
2023/09/06 12:44:16;;;;;;;0.45;0.20;;;34.40;74.90;;;;;;5124386;27;20607;-75
2023/09/06 12:46:42;;;;;;;0.00;0.00;;;34.80;95.20;;;;;;5124296;27;20076;-76
2023/09/06 12:49:07;;;;;;;0.08;0.05;;;34.20;63.50;;;;;;5125826;27;20051;-75
2023/09/06 12:51:33;;;;;;;0.50;0.40;;;34.40;81.20;;;;;;5127158;27;20043;-75
2023/09/06 12:53:58;;;;;;;0.00;0.00;;;34.20;63.30;;;;;;5126914;27;20129;-76